sensor_id;sensor_type;location;lat;lon;timestamp;temperature;humidity
38118;DHT22;23928;47.562;7.508;2023-03-11T00:01:23;5.10;99.90
38118;DHT22;23928;47.562;7.508;2023-03-11T00:03:49;5.10;99.90
38118;DHT22;23928;47.562;7.508;2023-03-11T00:06:15;5.30;99.90
38118;DHT22;23928;47.562;7.508;2023-03-11T00:08:41;5.30;99.90
38118;DHT22;23928;47.562;7.508;2023-03-11T00:11:06;5.20;99.90
38118;DHT22;23928;47.562;7.508;2023-03-11T00:13:32;5.10;99.90
38118;DHT22;23928;47.562;7.508;2023-03-11T00:15:59;5.10;99.90
38118;DHT22;23928;47.562;7.508;2023-03-11T00:18:27;5.10;99.90
38118;DHT22;23928;47.562;7.508;2023-03-11T00:20:55;5.20;99.90
38118;DHT22;23928;47.562;7.508;2023-03-11T00:23:22;5.00;99.90
38118;DHT22;23928;47.562;7.508;2023-03-11T00:25:48;5.20;99.90
38118;DHT22;23928;47.562;7.508;2023-03-11T00:28:14;5.30;99.90
38118;DHT22;23928;47.562;7.508;2023-03-11T00:30:41;4.90;99.90
38118;DHT22;23928;47.562;7.508;2023-03-11T00:33:08;4.90;99.90
38118;DHT22;23928;47.562;7.508;2023-03-11T00:35:35;5.10;99.90
38118;DHT22;23928;47.562;7.508;2023-03-11T00:38:04;4.90;99.90
38118;DHT22;23928;47.562;7.508;2023-03-11T00:40:31;4.90;99.90
38118;DHT22;23928;47.562;7.508;2023-03-11T00:42:58;4.80;99.90
38118;DHT22;23928;47.562;7.508;2023-03-11T00:45:24;4.80;99.90
38118;DHT22;23928;47.562;7.508;2023-03-11T00:47:51;4.60;99.90
38118;DHT22;23928;47.562;7.508;2023-03-11T00:50:28;4.60;99.90
38118;DHT22;23928;47.562;7.508;2023-03-11T00:52:54;4.60;99.90
38118;DHT22;23928;47.562;7.508;2023-03-11T00:55:22;4.60;99.90
38118;DHT22;23928;47.562;7.508;2023-03-11T00:57:57;4.40;99.90
38118;DHT22;23928;47.562;7.508;2023-03-11T01:00:25;4.40;99.90
38118;DHT22;23928;47.562;7.508;2023-03-11T01:02:53;4.40;99.90
38118;DHT22;23928;47.562;7.508;2023-03-11T01:05:20;4.30;99.90
38118;DHT22;23928;47.562;7.508;2023-03-11T01:07:46;4.30;99.90
38118;DHT22;23928;47.562;7.508;2023-03-11T01:10:12;4.20;99.90
38118;DHT22;23928;47.562;7.508;2023-03-11T01:12:38;3.90;99.90
38118;DHT22;23928;47.562;7.508;2023-03-11T01:15:05;4.00;99.90
38118;DHT22;23928;47.562;7.508;2023-03-11T01:17:31;4.10;99.90
38118;DHT22;23928;47.562;7.508;2023-03-11T01:19:56;4.10;99.90
38118;DHT22;23928;47.562;7.508;2023-03-11T01:22:22;4.20;99.90
38118;DHT22;23928;47.562;7.508;2023-03-11T01:24:47;4.20;99.90
38118;DHT22;23928;47.562;7.508;2023-03-11T01:27:13;4.10;99.90
38118;DHT22;23928;47.562;7.508;2023-03-11T01:29:38;4.00;99.90
38118;DHT22;23928;47.562;7.508;2023-03-11T01:32:04;4.00;99.90
38118;DHT22;23928;47.562;7.508;2023-03-11T01:34:31;4.30;99.90
38118;DHT22;23928;47.562;7.508;2023-03-11T01:37:00;4.00;99.90
38118;DHT22;23928;47.562;7.508;2023-03-11T01:39:26;4.10;99.90
38118;DHT22;23928;47.562;7.508;2023-03-11T01:41:52;4.10;99.90
38118;DHT22;23928;47.562;7.508;2023-03-11T01:44:17;4.20;99.90
38118;DHT22;23928;47.562;7.508;2023-03-11T01:49:16;3.90;99.90
38118;DHT22;23928;47.562;7.508;2023-03-11T01:51:46;4.00;99.90
38118;DHT22;23928;47.562;7.508;2023-03-11T01:54:17;4.10;99.90
38118;DHT22;23928;47.562;7.508;2023-03-11T01:56:44;4.30;99.90
38118;DHT22;23928;47.562;7.508;2023-03-11T01:59:13;4.40;99.90
38118;DHT22;23928;47.562;7.508;2023-03-11T02:01:48;4.30;99.90
38118;DHT22;23928;47.562;7.508;2023-03-11T02:04:17;4.40;99.90
38118;DHT22;23928;47.562;7.508;2023-03-11T02:06:42;4.50;99.90
38118;DHT22;23928;47.562;7.508;2023-03-11T02:09:08;4.60;99.90
38118;DHT22;23928;47.562;7.508;2023-03-11T02:11:34;4.60;99.90
38118;DHT22;23928;47.562;7.508;2023-03-11T02:14:03;4.50;99.90
38118;DHT22;23928;47.562;7.508;2023-03-11T02:16:29;4.30;99.90
38118;DHT22;23928;47.562;7.508;2023-03-11T02:18:57;4.40;99.90
38118;DHT22;23928;47.562;7.508;2023-03-11T02:21:28;4.40;99.90
38118;DHT22;23928;47.562;7.508;2023-03-11T02:24:21;4.30;99.90
38118;DHT22;23928;47.562;7.508;2023-03-11T02:27:02;4.10;99.90
38118;DHT22;23928;47.562;7.508;2023-03-11T02:29:28;4.00;99.90
38118;DHT22;23928;47.562;7.508;2023-03-11T02:31:58;3.90;99.90
38118;DHT22;23928;47.562;7.508;2023-03-11T02:34:28;4.00;99.90
38118;DHT22;23928;47.562;7.508;2023-03-11T02:36:54;4.10;99.90
38118;DHT22;23928;47.562;7.508;2023-03-11T02:39:33;4.10;99.90
38118;DHT22;23928;47.562;7.508;2023-03-11T02:42:03;4.10;99.90
38118;DHT22;23928;47.562;7.508;2023-03-11T02:44:29;3.90;99.90
38118;DHT22;23928;47.562;7.508;2023-03-11T02:46:55;3.80;99.90
38118;DHT22;23928;47.562;7.508;2023-03-11T02:49:21;3.70;99.90
38118;DHT22;23928;47.562;7.508;2023-03-11T02:51:47;3.70;99.90
38118;DHT22;23928;47.562;7.508;2023-03-11T02:54:13;3.70;99.90
38118;DHT22;23928;47.562;7.508;2023-03-11T02:56:38;3.50;99.90
38118;DHT22;23928;47.562;7.508;2023-03-11T02:59:04;3.40;99.90
38118;DHT22;23928;47.562;7.508;2023-03-11T03:01:30;3.50;99.90
38118;DHT22;23928;47.562;7.508;2023-03-11T03:03:56;3.50;99.90
38118;DHT22;23928;47.562;7.508;2023-03-11T03:06:22;3.60;99.90
38118;DHT22;23928;47.562;7.508;2023-03-11T03:08:47;3.70;99.90
38118;DHT22;23928;47.562;7.508;2023-03-11T03:11:13;3.80;99.90
38118;DHT22;23928;47.562;7.508;2023-03-11T03:13:39;3.90;99.90
38118;DHT22;23928;47.562;7.508;2023-03-11T03:16:04;3.70;99.90
38118;DHT22;23928;47.562;7.508;2023-03-11T03:18:30;3.70;99.90
38118;DHT22;23928;47.562;7.508;2023-03-11T03:20:56;3.80;99.90
38118;DHT22;23928;47.562;7.508;2023-03-11T03:23:22;3.60;99.90
38118;DHT22;23928;47.562;7.508;2023-03-11T03:25:47;3.50;99.90
38118;DHT22;23928;47.562;7.508;2023-03-11T03:28:13;3.40;99.90
38118;DHT22;23928;47.562;7.508;2023-03-11T03:30:39;3.30;99.90
38118;DHT22;23928;47.562;7.508;2023-03-11T03:33:06;3.40;99.90
38118;DHT22;23928;47.562;7.508;2023-03-11T03:35:32;3.30;99.90
38118;DHT22;23928;47.562;7.508;2023-03-11T03:37:59;3.50;99.90
38118;DHT22;23928;47.562;7.508;2023-03-11T03:40:25;3.40;99.90
38118;DHT22;23928;47.562;7.508;2023-03-11T03:42:51;3.20;99.90
38118;DHT22;23928;47.562;7.508;2023-03-11T03:45:16;3.30;99.90
38118;DHT22;23928;47.562;7.508;2023-03-11T03:47:42;3.30;99.90
38118;DHT22;23928;47.562;7.508;2023-03-11T03:50:10;3.50;99.90
38118;DHT22;23928;47.562;7.508;2023-03-11T03:52:36;3.50;99.90
38118;DHT22;23928;47.562;7.508;2023-03-11T03:55:03;3.50;99.90
38118;DHT22;23928;47.562;7.508;2023-03-11T03:57:29;3.40;99.90
38118;DHT22;23928;47.562;7.508;2023-03-11T03:59:54;3.30;99.90
38118;DHT22;23928;47.562;7.508;2023-03-11T04:02:20;3.40;99.90
38118;DHT22;23928;47.562;7.508;2023-03-11T04:04:46;3.60;99.90
38118;DHT22;23928;47.562;7.508;2023-03-11T04:07:12;3.40;99.90
38118;DHT22;23928;47.562;7.508;2023-03-11T04:09:39;3.60;99.90
38118;DHT22;23928;47.562;7.508;2023-03-11T04:12:06;3.70;99.90
38118;DHT22;23928;47.562;7.508;2023-03-11T04:14:32;3.50;99.90
38118;DHT22;23928;47.562;7.508;2023-03-11T04:16:57;3.20;99.90
38118;DHT22;23928;47.562;7.508;2023-03-11T04:19:23;2.70;99.90
38118;DHT22;23928;47.562;7.508;2023-03-11T04:21:49;2.70;99.90
38118;DHT22;23928;47.562;7.508;2023-03-11T04:24:16;2.50;99.90
38118;DHT22;23928;47.562;7.508;2023-03-11T04:26:42;2.30;99.90
38118;DHT22;23928;47.562;7.508;2023-03-11T04:29:08;2.30;99.90
38118;DHT22;23928;47.562;7.508;2023-03-11T04:31:33;2.50;99.90
38118;DHT22;23928;47.562;7.508;2023-03-11T04:33:59;2.80;99.90
38118;DHT22;23928;47.562;7.508;2023-03-11T04:36:25;2.70;99.90
38118;DHT22;23928;47.562;7.508;2023-03-11T04:38:50;2.80;99.90
38118;DHT22;23928;47.562;7.508;2023-03-11T04:41:16;2.50;99.90
38118;DHT22;23928;47.562;7.508;2023-03-11T04:43:41;2.80;99.90
38118;DHT22;23928;47.562;7.508;2023-03-11T04:46:07;2.80;99.90
38118;DHT22;23928;47.562;7.508;2023-03-11T04:48:33;2.60;99.90
38118;DHT22;23928;47.562;7.508;2023-03-11T04:50:58;2.70;99.90
38118;DHT22;23928;47.562;7.508;2023-03-11T04:53:24;2.80;99.90
38118;DHT22;23928;47.562;7.508;2023-03-11T04:55:50;2.80;99.90
38118;DHT22;23928;47.562;7.508;2023-03-11T04:58:16;3.00;99.90
38118;DHT22;23928;47.562;7.508;2023-03-11T05:00:42;2.70;99.90
38118;DHT22;23928;47.562;7.508;2023-03-11T05:03:07;2.70;99.90
38118;DHT22;23928;47.562;7.508;2023-03-11T05:05:33;2.20;99.90
38118;DHT22;23928;47.562;7.508;2023-03-11T05:07:59;1.90;99.90
38118;DHT22;23928;47.562;7.508;2023-03-11T05:10:25;2.10;99.90
38118;DHT22;23928;47.562;7.508;2023-03-11T05:12:51;2.10;99.90
38118;DHT22;23928;47.562;7.508;2023-03-11T05:15:17;2.20;99.90
38118;DHT22;23928;47.562;7.508;2023-03-11T05:17:43;2.20;99.90
38118;DHT22;23928;47.562;7.508;2023-03-11T05:20:09;2.40;99.90
38118;DHT22;23928;47.562;7.508;2023-03-11T05:22:35;2.40;99.90
38118;DHT22;23928;47.562;7.508;2023-03-11T05:25:02;2.10;99.90
38118;DHT22;23928;47.562;7.508;2023-03-11T05:27:28;2.10;99.90
38118;DHT22;23928;47.562;7.508;2023-03-11T05:29:53;2.10;99.90
38118;DHT22;23928;47.562;7.508;2023-03-11T05:32:19;2.60;99.90
38118;DHT22;23928;47.562;7.508;2023-03-11T05:34:45;2.70;99.90
38118;DHT22;23928;47.562;7.508;2023-03-11T05:37:11;2.50;99.90
38118;DHT22;23928;47.562;7.508;2023-03-11T05:39:37;2.10;99.90
38118;DHT22;23928;47.562;7.508;2023-03-11T05:42:04;2.30;99.90
38118;DHT22;23928;47.562;7.508;2023-03-11T05:44:30;2.20;99.90
38118;DHT22;23928;47.562;7.508;2023-03-11T05:46:56;2.10;99.90
38118;DHT22;23928;47.562;7.508;2023-03-11T05:49:22;2.40;99.90
38118;DHT22;23928;47.562;7.508;2023-03-11T05:51:49;2.50;99.90
38118;DHT22;23928;47.562;7.508;2023-03-11T05:54:15;2.00;99.90
38118;DHT22;23928;47.562;7.508;2023-03-11T05:56:42;1.90;99.90
38118;DHT22;23928;47.562;7.508;2023-03-11T05:59:08;1.90;99.90
38118;DHT22;23928;47.562;7.508;2023-03-11T06:01:33;2.20;99.90
38118;DHT22;23928;47.562;7.508;2023-03-11T06:03:59;1.90;99.90
38118;DHT22;23928;47.562;7.508;2023-03-11T06:06:25;2.10;99.90
38118;DHT22;23928;47.562;7.508;2023-03-11T06:08:51;1.90;99.90
38118;DHT22;23928;47.562;7.508;2023-03-11T06:11:18;2.20;99.90
38118;DHT22;23928;47.562;7.508;2023-03-11T06:13:44;2.20;99.90
38118;DHT22;23928;47.562;7.508;2023-03-11T06:16:09;1.80;99.90
38118;DHT22;23928;47.562;7.508;2023-03-11T06:18:35;1.70;99.90
38118;DHT22;23928;47.562;7.508;2023-03-11T06:21:01;2.00;99.90
38118;DHT22;23928;47.562;7.508;2023-03-11T06:23:28;2.30;99.90
38118;DHT22;23928;47.562;7.508;2023-03-11T06:26:13;2.60;99.90
38118;DHT22;23928;47.562;7.508;2023-03-11T06:28:41;2.50;99.90
38118;DHT22;23928;47.562;7.508;2023-03-11T06:31:09;2.70;99.90
38118;DHT22;23928;47.562;7.508;2023-03-11T06:33:35;2.80;99.90
38118;DHT22;23928;47.562;7.508;2023-03-11T06:36:02;2.80;99.90
38118;DHT22;23928;47.562;7.508;2023-03-11T06:38:29;2.90;99.90
38118;DHT22;23928;47.562;7.508;2023-03-11T06:41:01;2.80;99.90
38118;DHT22;23928;47.562;7.508;2023-03-11T06:43:28;2.80;99.90
38118;DHT22;23928;47.562;7.508;2023-03-11T06:45:55;2.70;99.90
38118;DHT22;23928;47.562;7.508;2023-03-11T06:48:21;2.80;99.90
38118;DHT22;23928;47.562;7.508;2023-03-11T06:50:57;2.80;99.90
38118;DHT22;23928;47.562;7.508;2023-03-11T06:53:23;3.00;99.90
38118;DHT22;23928;47.562;7.508;2023-03-11T06:56:07;2.90;99.90
38118;DHT22;23928;47.562;7.508;2023-03-11T06:58:35;3.10;99.90
38118;DHT22;23928;47.562;7.508;2023-03-11T07:01:06;3.10;99.90
38118;DHT22;23928;47.562;7.508;2023-03-11T07:03:32;3.20;99.90
38118;DHT22;23928;47.562;7.508;2023-03-11T07:05:58;3.20;99.90
38118;DHT22;23928;47.562;7.508;2023-03-11T07:08:24;3.00;99.90
38118;DHT22;23928;47.562;7.508;2023-03-11T07:11:11;3.30;99.90
38118;DHT22;23928;47.562;7.508;2023-03-11T07:13:38;3.40;99.90
38118;DHT22;23928;47.562;7.508;2023-03-11T07:18:34;3.20;99.90
38118;DHT22;23928;47.562;7.508;2023-03-11T07:21:05;3.20;99.90
38118;DHT22;23928;47.562;7.508;2023-03-11T07:23:31;3.30;99.90
38118;DHT22;23928;47.562;7.508;2023-03-11T07:25:57;3.30;99.90
38118;DHT22;23928;47.562;7.508;2023-03-11T07:28:24;3.10;99.90
38118;DHT22;23928;47.562;7.508;2023-03-11T07:30:50;2.70;99.90
38118;DHT22;23928;47.562;7.508;2023-03-11T07:33:16;2.80;99.90
38118;DHT22;23928;47.562;7.508;2023-03-11T07:35:42;2.60;99.90
38118;DHT22;23928;47.562;7.508;2023-03-11T07:38:07;3.00;99.90
38118;DHT22;23928;47.562;7.508;2023-03-11T07:40:33;3.20;99.90
38118;DHT22;23928;47.562;7.508;2023-03-11T07:42:59;3.10;99.90
38118;DHT22;23928;47.562;7.508;2023-03-11T07:45:24;3.00;99.90
38118;DHT22;23928;47.562;7.508;2023-03-11T07:47:51;3.20;99.90
38118;DHT22;23928;47.562;7.508;2023-03-11T07:50:16;2.70;99.90
38118;DHT22;23928;47.562;7.508;2023-03-11T07:52:43;2.70;99.90
38118;DHT22;23928;47.562;7.508;2023-03-11T07:55:09;2.80;99.90
38118;DHT22;23928;47.562;7.508;2023-03-11T07:57:34;2.80;99.90
38118;DHT22;23928;47.562;7.508;2023-03-11T08:00:00;2.80;99.90
38118;DHT22;23928;47.562;7.508;2023-03-11T08:02:26;3.10;99.90
38118;DHT22;23928;47.562;7.508;2023-03-11T08:04:52;3.10;99.90
38118;DHT22;23928;47.562;7.508;2023-03-11T08:07:18;3.20;99.90
38118;DHT22;23928;47.562;7.508;2023-03-11T08:09:45;3.10;99.90
38118;DHT22;23928;47.562;7.508;2023-03-11T08:12:10;3.00;99.90
38118;DHT22;23928;47.562;7.508;2023-03-11T08:14:36;2.90;99.90
38118;DHT22;23928;47.562;7.508;2023-03-11T08:17:03;3.20;99.90
38118;DHT22;23928;47.562;7.508;2023-03-11T08:19:28;3.10;99.90
38118;DHT22;23928;47.562;7.508;2023-03-11T08:21:54;3.10;99.90
38118;DHT22;23928;47.562;7.508;2023-03-11T08:24:20;3.00;99.90
38118;DHT22;23928;47.562;7.508;2023-03-11T08:26:45;3.00;99.90
38118;DHT22;23928;47.562;7.508;2023-03-11T08:29:11;3.00;99.90
38118;DHT22;23928;47.562;7.508;2023-03-11T08:31:36;3.20;99.90
38118;DHT22;23928;47.562;7.508;2023-03-11T08:34:07;3.40;99.90
38118;DHT22;23928;47.562;7.508;2023-03-11T08:36:34;3.40;99.90
38118;DHT22;23928;47.562;7.508;2023-03-11T08:38:59;3.30;99.90
38118;DHT22;23928;47.562;7.508;2023-03-11T08:41:26;3.30;99.90
38118;DHT22;23928;47.562;7.508;2023-03-11T08:43:51;3.40;99.90
38118;DHT22;23928;47.562;7.508;2023-03-11T08:48:48;3.20;99.90
38118;DHT22;23928;47.562;7.508;2023-03-11T08:51:15;3.20;99.90
38118;DHT22;23928;47.562;7.508;2023-03-11T08:53:41;3.40;99.90
38118;DHT22;23928;47.562;7.508;2023-03-11T08:56:07;3.60;99.90
38118;DHT22;23928;47.562;7.508;2023-03-11T08:58:32;3.70;99.90
38118;DHT22;23928;47.562;7.508;2023-03-11T09:00:58;3.60;99.90
38118;DHT22;23928;47.562;7.508;2023-03-11T09:03:24;3.40;99.90
38118;DHT22;23928;47.562;7.508;2023-03-11T09:05:56;3.20;99.90
38118;DHT22;23928;47.562;7.508;2023-03-11T09:08:22;3.30;99.90
38118;DHT22;23928;47.562;7.508;2023-03-11T09:10:48;3.70;99.90
38118;DHT22;23928;47.562;7.508;2023-03-11T09:13:13;3.90;99.90
38118;DHT22;23928;47.562;7.508;2023-03-11T09:15:39;3.80;99.90
38118;DHT22;23928;47.562;7.508;2023-03-11T09:18:04;3.70;99.90
38118;DHT22;23928;47.562;7.508;2023-03-11T09:20:30;3.70;99.90
38118;DHT22;23928;47.562;7.508;2023-03-11T09:22:55;3.30;99.90
38118;DHT22;23928;47.562;7.508;2023-03-11T09:25:21;3.60;99.90
38118;DHT22;23928;47.562;7.508;2023-03-11T09:27:47;3.50;99.90
38118;DHT22;23928;47.562;7.508;2023-03-11T09:30:12;2.90;99.90
38118;DHT22;23928;47.562;7.508;2023-03-11T09:32:38;3.10;99.90
38118;DHT22;23928;47.562;7.508;2023-03-11T09:35:04;3.00;99.90
38118;DHT22;23928;47.562;7.508;2023-03-11T09:37:29;3.60;99.90
38118;DHT22;23928;47.562;7.508;2023-03-11T09:39:55;3.20;99.90
38118;DHT22;23928;47.562;7.508;2023-03-11T09:45:22;3.40;99.90
38118;DHT22;23928;47.562;7.508;2023-03-11T09:48:20;3.00;99.90
38118;DHT22;23928;47.562;7.508;2023-03-11T09:53:44;3.60;99.90
38118;DHT22;23928;47.562;7.508;2023-03-11T09:56:16;3.70;99.90
38118;DHT22;23928;47.562;7.508;2023-03-11T09:58:46;3.70;99.90
38118;DHT22;23928;47.562;7.508;2023-03-11T10:01:27;3.90;99.90
38118;DHT22;23928;47.562;7.508;2023-03-11T10:03:58;4.10;99.90
38118;DHT22;23928;47.562;7.508;2023-03-11T10:06:28;4.20;99.90
38118;DHT22;23928;47.562;7.508;2023-03-11T10:20:49;4.20;99.90
38118;DHT22;23928;47.562;7.508;2023-03-11T10:26:27;3.90;99.90
38118;DHT22;23928;47.562;7.508;2023-03-11T10:29:16;3.70;99.90
38118;DHT22;23928;47.562;7.508;2023-03-11T10:34:38;3.90;99.90
38118;DHT22;23928;47.562;7.508;2023-03-11T10:37:45;3.90;99.90
38118;DHT22;23928;47.562;7.508;2023-03-11T10:40:18;4.00;99.90
38118;DHT22;23928;47.562;7.508;2023-03-11T10:42:45;4.10;99.90
38118;DHT22;23928;47.562;7.508;2023-03-11T10:45:14;4.60;99.90
38118;DHT22;23928;47.562;7.508;2023-03-11T10:47:40;4.70;99.90
38118;DHT22;23928;47.562;7.508;2023-03-11T10:50:12;4.70;99.90
38118;DHT22;23928;47.562;7.508;2023-03-11T10:55:30;4.60;99.90
38118;DHT22;23928;47.562;7.508;2023-03-11T10:58:09;4.80;99.90
38118;DHT22;23928;47.562;7.508;2023-03-11T11:00:36;4.60;99.90
38118;DHT22;23928;47.562;7.508;2023-03-11T11:03:02;4.60;99.90
38118;DHT22;23928;47.562;7.508;2023-03-11T11:05:33;4.60;99.90
38118;DHT22;23928;47.562;7.508;2023-03-11T11:08:13;5.00;99.90
38118;DHT22;23928;47.562;7.508;2023-03-11T11:11:00;5.00;99.90
38118;DHT22;23928;47.562;7.508;2023-03-11T11:13:31;5.30;99.90
38118;DHT22;23928;47.562;7.508;2023-03-11T11:16:18;5.20;99.90
38118;DHT22;23928;47.562;7.508;2023-03-11T11:19:08;5.20;99.90
38118;DHT22;23928;47.562;7.508;2023-03-11T11:21:39;5.40;99.90
38118;DHT22;23928;47.562;7.508;2023-03-11T11:24:27;5.30;99.90
38118;DHT22;23928;47.562;7.508;2023-03-11T11:27:15;5.40;99.90
38118;DHT22;23928;47.562;7.508;2023-03-11T11:29:42;5.00;99.90
38118;DHT22;23928;47.562;7.508;2023-03-11T11:32:16;5.20;99.90
38118;DHT22;23928;47.562;7.508;2023-03-11T11:35:02;5.20;99.90
38118;DHT22;23928;47.562;7.508;2023-03-11T11:37:34;4.70;99.90
38118;DHT22;23928;47.562;7.508;2023-03-11T11:42:47;4.90;99.90
38118;DHT22;23928;47.562;7.508;2023-03-11T11:47:57;5.60;99.90
38118;DHT22;23928;47.562;7.508;2023-03-11T11:50:44;5.50;99.90
38118;DHT22;23928;47.562;7.508;2023-03-11T11:56:00;5.60;99.90
38118;DHT22;23928;47.562;7.508;2023-03-11T11:58:27;5.70;99.90
38118;DHT22;23928;47.562;7.508;2023-03-11T12:10:22;5.50;99.90
38118;DHT22;23928;47.562;7.508;2023-03-11T12:15:19;6.40;99.90
38118;DHT22;23928;47.562;7.508;2023-03-11T12:17:48;6.10;99.90
38118;DHT22;23928;47.562;7.508;2023-03-11T12:20:36;6.00;99.90
38118;DHT22;23928;47.562;7.508;2023-03-11T12:31:11;6.80;99.90
38118;DHT22;23928;47.562;7.508;2023-03-11T12:33:46;6.60;99.90
38118;DHT22;23928;47.562;7.508;2023-03-11T12:36:39;6.60;99.90
38118;DHT22;23928;47.562;7.508;2023-03-11T12:39:15;6.90;99.90
38118;DHT22;23928;47.562;7.508;2023-03-11T12:41:43;7.10;99.90
38118;DHT22;23928;47.562;7.508;2023-03-11T12:44:26;7.10;99.90
38118;DHT22;23928;47.562;7.508;2023-03-11T12:49:23;7.10;99.90
38118;DHT22;23928;47.562;7.508;2023-03-11T12:52:04;7.00;99.90
38118;DHT22;23928;47.562;7.508;2023-03-11T12:54:35;7.10;99.90
38118;DHT22;23928;47.562;7.508;2023-03-11T13:05:57;6.60;99.90
38118;DHT22;23928;47.562;7.508;2023-03-11T13:11:32;6.40;99.90
38118;DHT22;23928;47.562;7.508;2023-03-11T13:14:09;6.40;99.90
38118;DHT22;23928;47.562;7.508;2023-03-11T13:16:43;6.70;99.90
38118;DHT22;23928;47.562;7.508;2023-03-11T13:21:55;6.40;99.90
38118;DHT22;23928;47.562;7.508;2023-03-11T13:30:04;7.20;99.90
38118;DHT22;23928;47.562;7.508;2023-03-11T13:33:57;7.20;99.90
38118;DHT22;23928;47.562;7.508;2023-03-11T13:40:57;7.20;99.90
38118;DHT22;23928;47.562;7.508;2023-03-11T13:43:25;7.40;99.90
38118;DHT22;23928;47.562;7.508;2023-03-11T13:46:03;7.40;99.90
38118;DHT22;23928;47.562;7.508;2023-03-11T13:48:30;7.50;99.90
38118;DHT22;23928;47.562;7.508;2023-03-11T13:50:59;7.10;99.90
38118;DHT22;23928;47.562;7.508;2023-03-11T13:53:42;7.10;99.90
38118;DHT22;23928;47.562;7.508;2023-03-11T13:56:27;7.00;99.90
38118;DHT22;23928;47.562;7.508;2023-03-11T13:58:53;7.00;99.90
38118;DHT22;23928;47.562;7.508;2023-03-11T14:01:19;6.80;99.90
38118;DHT22;23928;47.562;7.508;2023-03-11T14:03:46;6.90;99.90
38118;DHT22;23928;47.562;7.508;2023-03-11T14:06:15;6.90;99.90
38118;DHT22;23928;47.562;7.508;2023-03-11T14:08:42;7.10;99.90
38118;DHT22;23928;47.562;7.508;2023-03-11T14:13:45;7.00;99.90
38118;DHT22;23928;47.562;7.508;2023-03-11T14:16:29;7.40;99.90
38118;DHT22;23928;47.562;7.508;2023-03-11T14:19:18;7.40;99.90
38118;DHT22;23928;47.562;7.508;2023-03-11T14:21:46;7.10;99.90
38118;DHT22;23928;47.562;7.508;2023-03-11T14:26:45;7.30;99.90
38118;DHT22;23928;47.562;7.508;2023-03-11T14:29:18;7.20;99.90
38118;DHT22;23928;47.562;7.508;2023-03-11T14:31:45;7.60;99.90
38118;DHT22;23928;47.562;7.508;2023-03-11T14:34:19;7.80;99.90
38118;DHT22;23928;47.562;7.508;2023-03-11T14:36:50;7.60;99.90
38118;DHT22;23928;47.562;7.508;2023-03-11T14:42:41;7.70;99.90
38118;DHT22;23928;47.562;7.508;2023-03-11T14:45:14;8.00;99.90
38118;DHT22;23928;47.562;7.508;2023-03-11T14:50:16;7.80;99.90
38118;DHT22;23928;47.562;7.508;2023-03-11T14:55:43;7.80;99.90
38118;DHT22;23928;47.562;7.508;2023-03-11T15:00:54;7.20;99.90
38118;DHT22;23928;47.562;7.508;2023-03-11T15:03:23;7.20;99.90
38118;DHT22;23928;47.562;7.508;2023-03-11T15:05:55;7.50;99.90
38118;DHT22;23928;47.562;7.508;2023-03-11T15:08:23;7.50;99.90
38118;DHT22;23928;47.562;7.508;2023-03-11T15:11:20;7.70;99.90
38118;DHT22;23928;47.562;7.508;2023-03-11T15:13:47;7.70;99.90
38118;DHT22;23928;47.562;7.508;2023-03-11T15:16:32;7.70;99.90
38118;DHT22;23928;47.562;7.508;2023-03-11T15:19:00;7.80;99.90
38118;DHT22;23928;47.562;7.508;2023-03-11T15:21:26;7.80;99.90
38118;DHT22;23928;47.562;7.508;2023-03-11T15:24:02;7.80;99.90
38118;DHT22;23928;47.562;7.508;2023-03-11T15:26:32;7.80;99.90
38118;DHT22;23928;47.562;7.508;2023-03-11T15:28:58;7.40;99.90
38118;DHT22;23928;47.562;7.508;2023-03-11T15:31:30;7.30;99.90
38118;DHT22;23928;47.562;7.508;2023-03-11T15:39:40;7.30;99.90
38118;DHT22;23928;47.562;7.508;2023-03-11T15:42:14;6.90;99.90
38118;DHT22;23928;47.562;7.508;2023-03-11T15:44:42;7.00;99.90
38118;DHT22;23928;47.562;7.508;2023-03-11T15:47:16;7.00;99.90
38118;DHT22;23928;47.562;7.508;2023-03-11T15:49:42;7.30;99.90
38118;DHT22;23928;47.562;7.508;2023-03-11T15:52:08;7.10;99.90
38118;DHT22;23928;47.562;7.508;2023-03-11T15:54:34;7.20;99.90
38118;DHT22;23928;47.562;7.508;2023-03-11T15:57:00;7.40;99.90
38118;DHT22;23928;47.562;7.508;2023-03-11T15:59:27;7.30;99.90
38118;DHT22;23928;47.562;7.508;2023-03-11T16:01:53;7.30;99.90
38118;DHT22;23928;47.562;7.508;2023-03-11T16:04:20;7.20;99.90
38118;DHT22;23928;47.562;7.508;2023-03-11T16:06:47;7.20;99.90
38118;DHT22;23928;47.562;7.508;2023-03-11T16:09:13;7.30;99.90
38118;DHT22;23928;47.562;7.508;2023-03-11T16:11:39;7.30;99.90
38118;DHT22;23928;47.562;7.508;2023-03-11T16:14:09;7.30;99.90
38118;DHT22;23928;47.562;7.508;2023-03-11T16:16:38;7.20;99.90
38118;DHT22;23928;47.562;7.508;2023-03-11T16:19:03;7.00;99.90
38118;DHT22;23928;47.562;7.508;2023-03-11T16:21:35;7.10;99.90
38118;DHT22;23928;47.562;7.508;2023-03-11T16:24:03;7.30;99.90
38118;DHT22;23928;47.562;7.508;2023-03-11T16:26:29;7.10;99.90
38118;DHT22;23928;47.562;7.508;2023-03-11T16:28:55;7.00;99.90
38118;DHT22;23928;47.562;7.508;2023-03-11T16:31:20;7.30;99.90
38118;DHT22;23928;47.562;7.508;2023-03-11T16:33:46;7.20;99.90
38118;DHT22;23928;47.562;7.508;2023-03-11T16:36:11;7.20;99.90
38118;DHT22;23928;47.562;7.508;2023-03-11T16:38:43;7.20;99.90
38118;DHT22;23928;47.562;7.508;2023-03-11T16:41:09;7.20;99.90
38118;DHT22;23928;47.562;7.508;2023-03-11T16:43:35;7.30;99.90
38118;DHT22;23928;47.562;7.508;2023-03-11T16:46:01;7.10;99.90
38118;DHT22;23928;47.562;7.508;2023-03-11T16:48:26;7.20;99.90
38118;DHT22;23928;47.562;7.508;2023-03-11T16:50:52;7.10;99.90
38118;DHT22;23928;47.562;7.508;2023-03-11T16:53:17;7.20;99.90
38118;DHT22;23928;47.562;7.508;2023-03-11T16:55:44;7.10;99.90
38118;DHT22;23928;47.562;7.508;2023-03-11T16:58:10;7.10;99.90
38118;DHT22;23928;47.562;7.508;2023-03-11T17:00:36;7.00;99.90
38118;DHT22;23928;47.562;7.508;2023-03-11T17:03:02;6.90;99.90
38118;DHT22;23928;47.562;7.508;2023-03-11T17:05:28;7.00;99.90
38118;DHT22;23928;47.562;7.508;2023-03-11T17:07:55;7.00;99.90
38118;DHT22;23928;47.562;7.508;2023-03-11T17:10:26;6.90;99.90
38118;DHT22;23928;47.562;7.508;2023-03-11T17:12:52;6.70;99.90
38118;DHT22;23928;47.562;7.508;2023-03-11T17:15:18;6.80;99.90
38118;DHT22;23928;47.562;7.508;2023-03-11T17:17:44;6.60;99.90
38118;DHT22;23928;47.562;7.508;2023-03-11T17:20:10;6.70;99.90
38118;DHT22;23928;47.562;7.508;2023-03-11T17:22:36;6.70;99.90
38118;DHT22;23928;47.562;7.508;2023-03-11T17:25:02;6.70;99.90
38118;DHT22;23928;47.562;7.508;2023-03-11T17:27:28;6.60;99.90
38118;DHT22;23928;47.562;7.508;2023-03-11T17:30:02;6.50;99.90
38118;DHT22;23928;47.562;7.508;2023-03-11T17:32:28;6.50;99.90
38118;DHT22;23928;47.562;7.508;2023-03-11T17:34:54;6.40;99.90
38118;DHT22;23928;47.562;7.508;2023-03-11T17:37:20;6.20;99.90
38118;DHT22;23928;47.562;7.508;2023-03-11T17:39:46;6.20;99.90
38118;DHT22;23928;47.562;7.508;2023-03-11T17:42:12;6.20;99.90
38118;DHT22;23928;47.562;7.508;2023-03-11T17:44:37;6.30;99.90
38118;DHT22;23928;47.562;7.508;2023-03-11T17:47:03;6.50;99.90